Map

Track Data

SID SEASON NUMBER BASIN SUBBASIN NAME ISO_TIME NATURE LAT LON WMO_WIND WMO_PRES WMO_AGENCY TRACK_TYPE DIST2LAND LANDFALL IFLAG USA_AGENCY USA_ATCF_ID USA_LAT USA_LON USA_RECORD USA_STATUS USA_WIND USA_PRES USA_SSHS USA_R34_NE USA_R34_SE USA_R34_SW USA_R34_NW USA_R50_NE USA_R50_SE USA_R50_SW USA_R50_NW USA_R64_NE USA_R64_SE USA_R64_SW USA_R64_NW USA_POCI USA_ROCI USA_RMW USA_EYE TOKYO_LAT TOKYO_LON TOKYO_GRADE TOKYO_WIND TOKYO_PRES TOKYO_R50_DIR TOKYO_R50_LONG TOKYO_R50_SHORT TOKYO_R30_DIR TOKYO_R30_LONG TOKYO_R30_SHORT TOKYO_LAND CMA_LAT CMA_LON CMA_CAT CMA_WIND CMA_PRES HKO_LAT HKO_LON HKO_CAT HKO_WIND HKO_PRES NEWDELHI_LAT NEWDELHI_LON NEWDELHI_GRADE NEWDELHI_WIND NEWDELHI_PRES NEWDELHI_CI NEWDELHI_DP NEWDELHI_POCI REUNION_LAT REUNION_LON REUNION_TYPE REUNION_WIND REUNION_PRES REUNION_TNUM REUNION_CI REUNION_RMW REUNION_R34_NE REUNION_R34_SE REUNION_R34_SW REUNION_R34_NW REUNION_R50_NE REUNION_R50_SE REUNION_R50_SW REUNION_R50_NW REUNION_R64_NE REUNION_R64_SE REUNION_R64_SW REUNION_R64_NW BOM_LAT BOM_LON BOM_TYPE BOM_WIND BOM_PRES BOM_TNUM BOM_CI BOM_RMW BOM_R34_NE BOM_R34_SE BOM_R34_SW BOM_R34_NW BOM_R50_NE BOM_R50_SE BOM_R50_SW BOM_R50_NW BOM_R64_NE BOM_R64_SE BOM_R64_SW BOM_R64_NW BOM_ROCI BOM_POCI BOM_EYE BOM_POS_METHOD BOM_PRES_METHOD NADI_LAT NADI_LON NADI_CAT NADI_WIND NADI_PRES WELLINGTON_LAT WELLINGTON_LON WELLINGTON_WIND WELLINGTON_PRES DS824_LAT DS824_LON DS824_STAGE DS824_WIND DS824_PRES TD9636_LAT TD9636_LON TD9636_STAGE TD9636_WIND TD9636_PRES TD9635_LAT TD9635_LON TD9635_WIND TD9635_PRES TD9635_ROCI NEUMANN_LAT NEUMANN_LON NEUMANN_CLASS NEUMANN_WIND NEUMANN_PRES MLC_LAT MLC_LON MLC_CLASS MLC_WIND MLC_PRES USA_GUST BOM_GUST BOM_GUST_PER REUNION_GUST REUNION_GUST_PER USA_SEAHGT USA_SEARAD_NE USA_SEARAD_SE USA_SEARAD_SW USA_SEARAD_NW STORM_SPEED STORM_DIR
1986233N10263 1986 85 EP MM JAVIER 1986-08-20 12:00:00 TS 10.0000 -97.2000 30 hurdat_epa main 630 625 O_________O___ hurdat_epa EP101986 10.0000 -97.2000 TD 30 -1 10.0000 -97.2000 1 30 13 278
1986233N10263 1986 85 EP MM JAVIER 1986-08-20 15:00:00 TS 10.0939 -97.8430 main 629 629 P_________P___ EP101986 10.0802 -97.8375 TD 37 0 10.1352 -97.8593 1 36 13 280
1986233N10263 1986 85 EP MM JAVIER 1986-08-20 18:00:00 TS 10.2190 -98.5063 45 hurdat_epa main 638 635 O_________P___ hurdat_epa EP101986 10.2000 -98.5000 TS 45 0 10.2758 -98.5250 1 42 14 283
1986233N10263 1986 85 EP MM JAVIER 1986-08-20 21:00:00 TS 10.3959 -99.2008 main 645 638 P_________P___ EP101986 10.3849 -99.2000 TS 50 0 10.4286 -99.2032 1 48 14 286
1986233N10263 1986 85 EP MM JAVIER 1986-08-21 00:00:00 TS 10.6000 -99.9000 55 hurdat_epa main 645 643 O_________O___ hurdat_epa EP101986 10.6000 -99.9000 TS 55 0 10.6000 -99.9000 2 55 14 287
1986233N10263 1986 85 EP MM JAVIER 1986-08-21 03:00:00 TS 10.7981 -100.556 main 652 645 P_________P___ EP101986 10.7997 -100.535 TS 55 0 10.7935 -100.619 2 63 14 287
1986233N10263 1986 85 EP MM JAVIER 1986-08-21 06:00:00 TS 10.9999 -101.237 55 hurdat_epa main 656 653 O_________P___ hurdat_epa EP101986 11.0000 -101.200 TS 55 0 10.9997 -101.350 2 72 15 286
1986233N10263 1986 85 EP MM JAVIER 1986-08-21 09:00:00 TS 11.2016 -102.015 main 663 662 P_________P___ EP101986 11.2001 -101.993 TS 72 1 11.2060 -102.081 2 81 16 285
1986233N10263 1986 85 EP MM JAVIER 1986-08-21 12:00:00 TS 11.4000 -102.800 90 hurdat_epa main 681 680 O_________O___ hurdat_epa EP101986 11.4000 -102.800 HU 90 2 11.4000 -102.800 3 90 15 285
1986233N10263 1986 85 EP MM JAVIER 1986-08-21 15:00:00 TS 11.6031 -103.521 main 688 686 P_________P___ EP101986 11.6148 -103.522 HU 90 2 11.5682 -103.518 3 92 14 285
1986233N10263 1986 85 EP MM JAVIER 1986-08-21 18:00:00 TS 11.7806 -104.204 90 hurdat_epa main 700 700 O_________P___ hurdat_epa EP101986 11.8000 -104.200 HU 90 2 11.7223 -104.218 3 95 14 282
1986233N10263 1986 85 EP MM JAVIER 1986-08-21 21:00:00 TS 11.8969 -104.881 main 726 726 P_________P___ EP101986 11.9074 -104.880 HU 95 2 11.8652 -104.884 3 97 13 280
1986233N10263 1986 85 EP MM JAVIER 1986-08-22 00:00:00 TS 12.0000 -105.500 100 hurdat_epa main 736 733 O_________O___ hurdat_epa EP101986 12.0000 -105.500 HU 100 3 12.0000 -105.500 4 100 12 282
1986233N10263 1986 85 EP MM JAVIER 1986-08-22 03:00:00 TS 12.1452 -106.033 main 744 737 P_________P___ EP101986 12.1498 -106.022 HU 100 3 12.1315 -106.063 4 97 10 286
1986233N10263 1986 85 EP MM JAVIER 1986-08-22 06:00:00 TS 12.2892 -106.519 100 hurdat_epa main 744 744 O_________P___ hurdat_epa EP101986 12.3000 -106.500 HU 100 3 12.2567 -106.575 4 95 10 285
1986233N10263 1986 85 EP MM JAVIER 1986-08-22 09:00:00 TS 12.3945 -107.007 main 759 759 P_________P___ EP101986 12.3999 -106.993 HU 95 2 12.3786 -107.050 4 92 10 282
1986233N10263 1986 85 EP MM JAVIER 1986-08-22 12:00:00 TS 12.5000 -107.500 90 hurdat_epa main 778 778 O_________O___ hurdat_epa EP101986 12.5000 -107.500 HU 90 2 12.5000 -107.500 4 90 11 284
1986233N10263 1986 85 EP MM JAVIER 1986-08-22 15:00:00 TS 12.6428 -108.056 main 806 797 P_________P___ EP101986 12.6501 -108.080 HU 90 2 12.6209 -107.983 4 90 11 285
1986233N10263 1986 85 EP MM JAVIER 1986-08-22 18:00:00 TS 12.7856 -108.560 90 hurdat_epa main 823 823 O_________P___ hurdat_epa EP101986 12.8000 -108.600 HU 90 2 12.7425 -108.440 4 90 9 286
1986233N10263 1986 85 EP MM JAVIER 1986-08-22 21:00:00 TS 12.8918 -108.927 main 830 830 P_________P___ EP101986 12.8998 -108.953 HU 90 2 12.8679 -108.852 4 90 7 289
1986233N10263 1986 85 EP MM JAVIER 1986-08-23 00:00:00 TS 13.0000 -109.200 90 hurdat_epa main 838 834 O_________O___ hurdat_epa EP101986 13.0000 -109.200 HU 90 2 13.0000 -109.200 4 90 6 297
1986233N10263 1986 85 EP MM JAVIER 1986-08-23 03:00:00 TS 13.1394 -109.434 main 841 835 P_________P___ EP101986 13.1424 -109.415 HU 90 2 13.1303 -109.489 4 90 5 305
1986233N10263 1986 85 EP MM JAVIER 1986-08-23 06:00:00 TS 13.2924 -109.628 90 hurdat_epa main 835 833 O_________P___ hurdat_epa EP101986 13.3000 -109.600 HU 90 2 13.2696 -109.713 4 90 5 308
1986233N10263 1986 85 EP MM JAVIER 1986-08-23 09:00:00 TS 13.4379 -109.831 main 840 836 P_________P___ EP101986 13.4425 -109.815 HU 90 2 13.4242 -109.880 4 90 5 310
1986233N10263 1986 85 EP MM JAVIER 1986-08-23 12:00:00 TS 13.6000 -110.000 90 hurdat_epa main 836 827 O_________O___ hurdat_epa EP101986 13.6000 -110.000 HU 90 2 13.6000 -110.000 4 90 5 321
1986233N10263 1986 85 EP MM JAVIER 1986-08-23 15:00:00 TS 13.7855 -110.124 main 827 818 P_________P___ EP101986 13.7850 -110.130 HU 85 2 13.7871 -110.105 4 92 4 335
1986233N10263 1986 85 EP MM JAVIER 1986-08-23 18:00:00 TS 13.9994 -110.192 80 hurdat_epa main 818 802 O_________P___ hurdat_epa EP101986 14.0000 -110.200 HU 80 1 13.9974 -110.168 4 95 5 349
1986233N10263 1986 85 EP MM JAVIER 1986-08-23 21:00:00 TS 14.2347 -110.216 main 802 778 P_________P___ EP101986 14.2350 -110.223 HU 90 2 14.2340 -110.196 4 97 5 0
1986233N10263 1986 85 EP MM JAVIER 1986-08-24 00:00:00 TS 14.5000 -110.200 100 hurdat_epa main 778 755 O_________O___ hurdat_epa EP101986 14.5000 -110.200 HU 100 3 14.5000 -110.200 4 100 6 5
1986233N10263 1986 85 EP MM JAVIER 1986-08-24 03:00:00 TS 14.7878 -110.154 main 755 724 P_________P___ EP101986 14.7850 -110.150 HU 105 3 14.7962 -110.165 4 102 6 9
1986233N10263 1986 85 EP MM JAVIER 1986-08-24 06:00:00 TS 15.1050 -110.103 110 hurdat_epa main 724 700 O_________P___ hurdat_epa EP101986 15.1000 -110.100 HU 110 3 15.1199 -110.113 4 105 7 6
1986233N10263 1986 85 EP MM JAVIER 1986-08-24 09:00:00 TS 15.4409 -110.073 main 700 669 P_________P___ EP101986 15.4350 -110.070 HU 110 3 15.4587 -110.080 4 107 7 2
1986233N10263 1986 85 EP MM JAVIER 1986-08-24 12:00:00 TS 15.8000 -110.100 110 hurdat_epa main 669 649 O_________O___ hurdat_epa EP101986 15.8000 -110.100 HU 110 3 15.8000 -110.100 4 110 8 350
1986233N10263 1986 85 EP MM JAVIER 1986-08-24 15:00:00 TS 16.1965 -110.213 main 649 638 P_________P___ EP101986 16.2150 -110.220 HU 110 3 16.1411 -110.193 4 111 8 340
1986233N10263 1986 85 EP MM JAVIER 1986-08-24 18:00:00 TS 16.5700 -110.386 110 hurdat_epa main 640 634 O_________P___ hurdat_epa EP101986 16.6000 -110.400 HU 110 3 16.4798 -110.345 4 112 7 333
1986233N10263 1986 85 EP MM JAVIER 1986-08-24 21:00:00 TS 16.8552 -110.571 main 640 640 P_________P___ EP101986 16.8724 -110.578 HU 112 3 16.8036 -110.549 4 113 7 323
1986233N10263 1986 85 EP MM JAVIER 1986-08-25 00:00:00 TS 17.1000 -110.800 115 hurdat_epa main 646 634 O_________O___ hurdat_epa EP101986 17.1000 -110.800 HU 115 4 17.1000 -110.800 4 115 7 316
1986233N10263 1986 85 EP MM JAVIER 1986-08-25 03:00:00 TS 17.3545 -111.075 main 625 608 P_________P___ EP101986 17.3575 -111.078 HU 112 3 17.3455 -111.066 4 115 8 311
1986233N10263 1986 85 EP MM JAVIER 1986-08-25 06:00:00 TS 17.5912 -111.394 110 hurdat_epa main 610 597 O_________P___ hurdat_epa EP101986 17.6000 -111.400 HU 110 3 17.5648 -111.376 4 115 8 305
1986233N10263 1986 85 EP MM JAVIER 1986-08-25 09:00:00 TS 17.7942 -111.738 main 597 586 P_________P___ EP101986 17.8000 -111.743 HU 112 3 17.7767 -111.722 4 115 8 301
1986233N10263 1986 85 EP MM JAVIER 1986-08-25 12:00:00 TS 18.0000 -112.100 115 hurdat_epa main 590 577 O_________O___ hurdat_epa EP101986 18.0000 -112.100 HU 115 4 18.0000 -112.100 4 115 8 304
1986233N10263 1986 85 EP MM JAVIER 1986-08-25 15:00:00 TS 18.2441 -112.436 main 581 566 P_________P___ EP101986 18.2348 -112.428 HU 105 3 18.2722 -112.460 4 108 9 307
1986233N10263 1986 85 EP MM JAVIER 1986-08-25 18:00:00 TS 18.5141 -112.813 95 hurdat_epa main 571 563 O_________P___ hurdat_epa EP101986 18.5000 -112.800 HU 95 2 18.5564 -112.853 4 102 10 306
1986233N10263 1986 85 EP MM JAVIER 1986-08-25 21:00:00 TS 18.8092 -113.259 main 572 563 P_________P___ EP101986 18.7998 -113.248 HU 92 2 18.8375 -113.294 4 96 11 302
1986233N10263 1986 85 EP MM JAVIER 1986-08-26 00:00:00 TS 19.1000 -113.800 90 hurdat_epa main 579 578 O_________O___ hurdat_epa EP101986 19.1000 -113.800 HU 90 2 19.1000 -113.800 4 90 13 296
1986233N10263 1986 85 EP MM JAVIER 1986-08-26 03:00:00 TS 19.3650 -114.459 main 608 608 P_________P___ EP101986 19.3727 -114.485 HU 87 2 19.3420 -114.381 4 86 14 291
1986233N10263 1986 85 EP MM JAVIER 1986-08-26 06:00:00 TS 19.5900 -115.156 85 hurdat_epa main 650 650 O_________P___ hurdat_epa EP101986 19.6000 -115.200 HU 85 2 19.5602 -115.025 4 82 13 288
1986233N10263 1986 85 EP MM JAVIER 1986-08-26 09:00:00 TS 19.7661 -115.782 main 666 666 P_________P___ EP101986 19.7721 -115.808 HU 80 1 19.7481 -115.706 4 78 12 285
1986233N10263 1986 85 EP MM JAVIER 1986-08-26 12:00:00 TS 19.9000 -116.400 75 hurdat_epa main 695 695 O_________O___ hurdat_epa EP101986 19.9000 -116.400 HU 75 1 19.9000 -116.400 4 75 12 282
1986233N10263 1986 85 EP MM JAVIER 1986-08-26 15:00:00 TS 20.0156 -117.040 main 727 727 P_________P___ EP101986 20.0148 -117.035 HU 75 1 20.0181 -117.056 4 72 12 279
1986233N10263 1986 85 EP MM JAVIER 1986-08-26 18:00:00 TS 20.1003 -117.705 75 hurdat_epa main 771 771 O_________P___ hurdat_epa EP101986 20.1000 -117.700 HU 75 1 20.1011 -117.721 4 70 13 277
1986233N10263 1986 85 EP MM JAVIER 1986-08-26 21:00:00 TS 20.1632 -118.389 main 818 818 P_________P___ EP101986 20.1647 -118.385 HU 70 1 20.1586 -118.400 4 67 13 274
1986233N10263 1986 85 EP MM JAVIER 1986-08-27 00:00:00 TS 20.2000 -119.100 65 hurdat_epa main 875 875 O_________O___ hurdat_epa EP101986 20.2000 -119.100 HU 65 1 20.2000 -119.100 4 65 14 272
1986233N10263 1986 85 EP MM JAVIER 1986-08-27 03:00:00 TS 20.2086 -119.841 main 934 934 P_________P___ EP101986 20.1998 -119.843 HU 65 1 20.2350 -119.837 4 65 14 271
1986233N10263 1986 85 EP MM JAVIER 1986-08-27 06:00:00 TS 20.2143 -120.598 65 hurdat_epa main 1003 1003 O_________P___ hurdat_epa EP101986 20.2000 -120.600 HU 65 1 20.2572 -120.593 4 65 14 272
1986233N10263 1986 85 EP MM JAVIER 1986-08-27 09:00:00 TS 20.2506 -121.356 main 1049 1049 P_________P___ EP101986 20.2423 -121.357 HU 65 1 20.2756 -121.353 4 65 14 273
1986233N10263 1986 85 EP MM JAVIER 1986-08-27 12:00:00 TS 20.3000 -122.100 65 hurdat_epa main 1096 1096 O_________O___ hurdat_epa EP101986 20.3000 -122.100 HU 65 1 20.3000 -122.100 4 65 14 274
1986233N10263 1986 85 EP MM JAVIER 1986-08-27 15:00:00 TS 20.3468 -122.814 main 1144 1143 P_________P___ EP101986 20.3496 -122.808 HU 65 1 20.3382 -122.835 4 65 13 274
1986233N10263 1986 85 EP MM JAVIER 1986-08-27 18:00:00 TS 20.3961 -123.513 65 hurdat_epa main 1186 1186 O_________P___ hurdat_epa EP101986 20.4000 -123.500 HU 65 1 20.3844 -123.552 4 65 13 274
1986233N10263 1986 85 EP MM JAVIER 1986-08-27 21:00:00 TS 20.4470 -124.222 main 1238 1238 P_________P___ EP101986 20.4499 -124.215 HU 65 1 20.4383 -124.244 4 65 13 275
1986233N10263 1986 85 EP MM JAVIER 1986-08-28 00:00:00 TS 20.5000 -124.900 65 hurdat_epa main 1285 1285 O_________O___ hurdat_epa EP101986 20.5000 -124.900 HU 65 1 20.5000 -124.900 4 65 12 275
1986233N10263 1986 85 EP MM JAVIER 1986-08-28 03:00:00 TS 20.5484 -125.524 main 1333 1333 P_________P___ EP101986 20.5422 -125.523 HU 65 1 20.5669 -125.527 4 63 11 276
1986233N10263 1986 85 EP MM JAVIER 1986-08-28 06:00:00 TS 20.6104 -126.104 65 hurdat_epa main 1375 1375 O_________P___ hurdat_epa EP101986 20.6000 -126.100 HU 65 1 20.6415 -126.117 4 62 11 278
1986233N10263 1986 85 EP MM JAVIER 1986-08-28 09:00:00 TS 20.7050 -126.673 main 1419 1419 P_________P___ EP101986 20.6999 -126.672 HU 62 0 20.7203 -126.674 4 61 10 280
1986233N10263 1986 85 EP MM JAVIER 1986-08-28 12:00:00 TS 20.8000 -127.200 60 hurdat_epa main 1455 1455 O_________O___ hurdat_epa EP101986 20.8000 -127.200 TS 60 0 20.8000 -127.200 2 60 9 279
1986233N10263 1986 85 EP MM JAVIER 1986-08-28 15:00:00 TS 20.8528 -127.669 main 1492 1492 P_________P___ EP101986 20.8497 -127.658 TS 60 0 20.8620 -127.704 2 60 9 277
1986233N10263 1986 85 EP MM JAVIER 1986-08-28 18:00:00 TS 20.9066 -128.120 60 hurdat_epa main 1527 1527 O_________P___ hurdat_epa EP101986 20.9000 -128.100 TS 60 0 20.9264 -128.181 2 60 9 279
1986233N10263 1986 85 EP MM JAVIER 1986-08-28 21:00:00 TS 20.9894 -128.605 main 1565 1565 P_________P___ EP101986 20.9849 -128.593 TS 60 0 21.0027 -128.642 2 60 9 282
1986233N10263 1986 85 EP MM JAVIER 1986-08-29 00:00:00 TS 21.1000 -129.100 60 hurdat_epa main 1604 1604 O_________O___ hurdat_epa EP101986 21.1000 -129.100 TS 60 0 21.1000 -129.100 2 60 10 285
1986233N10263 1986 85 EP MM JAVIER 1986-08-29 03:00:00 TS 21.2388 -129.598 main 1644 1644 P_________P___ EP101986 21.2424 -129.608 TS 60 0 21.2280 -129.571 2 57 10 288
1986233N10263 1986 85 EP MM JAVIER 1986-08-29 06:00:00 TS 21.3942 -130.086 60 hurdat_epa main 1678 1678 O_________P___ hurdat_epa EP101986 21.4000 -130.100 TS 60 0 21.3768 -130.043 2 55 9 289
1986233N10263 1986 85 EP MM JAVIER 1986-08-29 09:00:00 TS 21.5466 -130.542 main 1710 1710 P_________P___ EP101986 21.5498 -130.550 TS 55 0 21.5373 -130.518 2 52 9 290
1986233N10263 1986 85 EP MM JAVIER 1986-08-29 12:00:00 TS 21.7000 -131.000 50 hurdat_epa main 1746 1746 O_________O___ hurdat_epa EP101986 21.7000 -131.000 TS 50 0 21.7000 -131.000 2 50 9 289
1986233N10263 1986 85 EP MM JAVIER 1986-08-29 15:00:00 TS 21.8469 -131.497 main 1769 1760 P_________P___ EP101986 21.8499 -131.493 TS 45 0 21.8378 -131.509 2 46 10 288
1986233N10263 1986 85 EP MM JAVIER 1986-08-29 18:00:00 TS 21.9944 -132.006 40 hurdat_epa main 1781 1781 O_________P___ hurdat_epa EP101986 22.0000 -132.000 TS 40 0 21.9775 -132.023 2 42 10 287
1986233N10263 1986 85 EP MM JAVIER 1986-08-29 21:00:00 TS 22.1390 -132.518 main 1803 1801 P_________P___ EP101986 22.1425 -132.515 TS 37 0 22.1285 -132.525 2 38 10 288
1986233N10263 1986 85 EP MM JAVIER 1986-08-30 00:00:00 TS 22.3000 -133.000 35 hurdat_epa main 1818 1816 O_________O___ hurdat_epa EP101986 22.3000 -133.000 TS 35 0 22.3000 -133.000 2 35 9 293
1986233N10263 1986 85 EP MM JAVIER 1986-08-30 03:00:00 TS 22.4882 -133.417 main 1827 1825 P_________P___ EP101986 22.4848 -133.415 TS 32 -1 22.4985 -133.421 2 33 8 299
1986233N10263 1986 85 EP MM JAVIER 1986-08-30 06:00:00 TS 22.7047 -133.804 30 hurdat_epa main 1837 1836 O_________P___ hurdat_epa EP101986 22.7000 -133.800 TD 30 -1 22.7189 -133.816 2 32 8 302
1986233N10263 1986 85 EP MM JAVIER 1986-08-30 09:00:00 TS 22.9398 -134.195 main 1848 1840 P_________P___ EP101986 22.9348 -134.193 TD 30 -1 22.9548 -134.202 2 31 9 304
1986233N10263 1986 85 EP MM JAVIER 1986-08-30 12:00:00 TS 23.2000 -134.600 30 hurdat_epa main 1852 1851 O_________O___ hurdat_epa EP101986 23.2000 -134.600 TD 30 -1 23.2000 -134.600 1 30 10 306
1986233N10263 1986 85 EP MM JAVIER 1986-08-30 15:00:00 TS 23.4968 -135.038 main 1857 1857 P_________P___ EP101986 23.5074 -135.042 TD 30 -1 23.4650 -135.025 1 28 10 306
1986233N10263 1986 85 EP MM JAVIER 1986-08-30 18:00:00 TS 23.7834 -135.491 30 hurdat_epa main 1871 1871 O_________P___ hurdat_epa EP101986 23.8000 -135.500 TD 30 -1 23.7337 -135.466 1 27 10 302
1986233N10263 1986 85 EP MM JAVIER 1986-08-30 21:00:00 TS 24.0131 -135.938 main 1887 1887 P_________P___ EP101986 24.0223 -135.943 TD 27 -1 23.9855 -135.923 1 26 9 297
1986233N10263 1986 85 EP MM JAVIER 1986-08-31 00:00:00 TS 24.2000 -136.400 25 hurdat_epa main 1910 1910 O_________O___ hurdat_epa EP101986 24.2000 -136.400 TD 25 -1 24.2000 -136.400 1 25 9 292
1986233N10263 1986 85 EP MM JAVIER 1986-08-31 03:00:00 TS 24.3578 -136.891 main 1923 1876 P_________P___ EP101986 24.3554 -136.890 TD 25 -1 24.3649 -136.895 1 25 10 288
1986233N10263 1986 85 EP MM JAVIER 1986-08-31 06:00:00 TS 24.5000 -137.400 25 hurdat_epa main 1876 O_________O___ hurdat_epa EP101986 24.5000 -137.400 TD 25 -1 24.5000 -137.400 1 25 10 287

About IBTrACS Database

This database is a web-friendly format of International Best Track Archive for Climate Stewardship (IBTrACS), a global best track data archive curated by NOAA dating back to 1842.

Updated: 2021-12-06